Time;durP1;ratioP1;P1;durP2;ratioP2;P2;SDS_P1;SDS_P2;PMS_P1;PMS_P2;Temp;Humidity;BMP_temperature;BMP_pressure;BME280_temperature;BME280_humidity;BME280_pressure;Samples;Min_cycle;Max_cycle;Signal;HPM_P1;HPM_P2
2021/07/31 00:00:20;;;;;;;40.48;19.70;;;;;;;19.85;100.00;100439.39;1735805;81;20975;-82
2021/07/31 00:02:47;;;;;;;43.28;19.35;;;;;;;19.80;100.00;100442.89;1741853;82;21467;-78
2021/07/31 00:05:14;;;;;;;43.20;20.23;;;;;;;19.76;100.00;100446.82;1742350;81;21062;-80
2021/07/31 00:07:42;;;;;;;38.92;20.25;;;;;;;19.73;100.00;100439.27;1742343;82;21141;-76
2021/07/31 00:10:10;;;;;;;40.63;20.30;;;;;;;19.70;100.00;100442.08;1741729;82;21487;-73
2021/07/31 00:12:37;;;;;;;43.63;19.95;;;;;;;19.68;100.00;100440.27;1773474;80;21003;-83
2021/07/31 00:15:04;;;;;;;40.67;20.05;;;;;;;19.66;100.00;100441.14;1784179;80;21007;-76
2021/07/31 00:17:30;;;;;;;52.45;22.37;;;;;;;19.65;100.00;100440.11;1784312;80;21511;-76
2021/07/31 00:19:56;;;;;;;49.18;24.52;;;;;;;19.64;100.00;100440.62;1784282;80;21239;-76
2021/07/31 00:22:22;;;;;;;50.20;22.20;;;;;;;19.64;100.00;100441.19;1784374;80;20875;-77
2021/07/31 00:24:48;;;;;;;52.33;23.02;;;;;;;19.62;100.00;100433.87;1784034;80;21605;-77
2021/07/31 00:27:14;;;;;;;41.35;20.45;;;;;;;19.60;100.00;100436.14;1776162;80;20880;-79
2021/07/31 00:29:40;;;;;;;51.50;20.92;;;;;;;19.58;100.00;100442.48;1773676;80;20869;-77
2021/07/31 00:32:07;;;;;;;44.00;20.65;;;;;;;19.50;100.00;100434.53;1773284;81;21956;-77
2021/07/31 00:34:33;;;;;;;49.10;21.87;;;;;;;19.45;100.00;100436.88;1773302;81;21011;-77
2021/07/31 00:36:58;;;;;;;48.85;20.40;;;;;;;19.42;100.00;100433.43;1773487;81;20896;-77
2021/07/31 00:39:24;;;;;;;43.73;19.37;;;;;;;19.39;100.00;100434.64;1773399;80;20931;-76
2021/07/31 00:41:50;;;;;;;45.63;20.17;;;;;;;19.37;100.00;100432.79;1773527;81;20888;-76
2021/07/31 00:44:16;;;;;;;41.83;18.75;;;;;;;19.36;100.00;100431.99;1773065;80;21961;-77
2021/07/31 00:46:44;;;;;;;37.05;19.92;;;;;;;19.34;100.00;100430.13;1773248;80;20952;-76
2021/07/31 00:49:10;;;;;;;46.55;19.20;;;;;;;19.29;100.00;100425.66;1669019;86;20992;-77
2021/07/31 00:51:36;;;;;;;43.33;19.62;;;;;;;19.26;100.00;100422.73;1668957;86;20960;-82
2021/07/31 00:54:03;;;;;;;40.83;18.42;;;;;;;19.23;100.00;100422.02;1669220;86;20977;-77
2021/07/31 00:56:30;;;;;;;38.42;17.92;;;;;;;19.20;100.00;100421.30;1669124;86;21056;-77
2021/07/31 00:58:56;;;;;;;38.60;17.67;;;;;;;19.18;100.00;100420.84;1669102;86;20960;-83
2021/07/31 01:01:22;;;;;;;48.80;18.80;;;;;;;19.16;100.00;100421.14;1669105;86;21109;-77
2021/07/31 01:03:48;;;;;;;43.52;17.98;;;;;;;19.13;100.00;100416.89;1669048;86;21064;-76
2021/07/31 01:06:14;;;;;;;38.15;18.27;;;;;;;19.11;100.00;100416.41;1669199;86;20980;-75
2021/07/31 01:08:40;;;;;;;44.15;20.25;;;;;;;19.06;100.00;100425.58;1668981;86;21822;-76
2021/07/31 01:11:06;;;;;;;37.20;17.35;;;;;;;19.02;100.00;100430.85;1668970;86;20917;-81
2021/07/31 01:13:33;;;;;;;41.45;19.82;;;;;;;19.01;100.00;100426.52;1668881;86;21093;-77
2021/07/31 01:16:08;;;;;;;39.80;17.98;;;;;;;18.97;100.00;100431.03;1669055;86;21020;-78
2021/07/31 01:18:36;;;;;;;35.95;17.67;;;;;;;18.97;100.00;100435.66;1635768;87;21222;-77
2021/07/31 01:21:03;;;;;;;36.35;17.30;;;;;;;18.93;100.00;100435.51;1636194;87;21571;-76
2021/07/31 01:23:29;;;;;;;36.58;17.92;;;;;;;18.91;100.00;100442.41;1635899;86;21079;-76
2021/07/31 01:25:56;;;;;;;35.45;16.97;;;;;;;18.89;100.00;100446.84;1635517;87;21092;-77
2021/07/31 01:28:23;;;;;;;39.13;18.32;;;;;;;18.82;100.00;100443.22;1632419;87;20938;-77
2021/07/31 01:30:49;;;;;;;39.08;17.77;;;;;;;18.79;100.00;100445.77;1632445;87;21038;-74
2021/07/31 01:33:15;;;;;;;35.80;17.20;;;;;;;18.76;100.00;100447.77;1632604;87;21352;-74
2021/07/31 01:35:41;;;;;;;36.75;16.25;;;;;;;18.77;100.00;100450.76;1632496;87;21069;-77
2021/07/31 01:38:07;;;;;;;38.53;17.17;;;;;;;18.74;100.00;100448.66;1632604;87;20924;-77
2021/07/31 01:40:33;;;;;;;37.85;17.80;;;;;;;18.72;100.00;100448.94;1632522;87;20958;-77
2021/07/31 01:42:59;;;;;;;33.73;16.73;;;;;;;18.68;100.00;100447.15;1632526;87;21042;-77
2021/07/31 01:45:27;;;;;;;34.33;17.00;;;;;;;18.66;100.00;100445.32;1632855;83;21062;-77
2021/07/31 01:47:56;;;;;;;34.13;16.48;;;;;;;18.63;100.00;100447.32;1720704;83;20955;-77
2021/07/31 01:50:22;;;;;;;35.92;16.40;;;;;;;18.62;100.00;100451.98;1720723;83;21045;-78
2021/07/31 01:52:48;;;;;;;36.45;16.27;;;;;;;18.59;100.00;100456.14;1720581;83;20951;-75
2021/07/31 01:55:14;;;;;;;36.03;16.15;;;;;;;18.58;100.00;100449.06;1720549;83;20884;-83
2021/07/31 01:57:40;;;;;;;35.23;16.60;;;;;;;18.60;100.00;100459.67;1720806;83;21889;-77
2021/07/31 02:00:08;;;;;;;33.88;16.32;;;;;;;18.59;100.00;100458.08;1720769;83;21007;-77
2021/07/31 02:02:34;;;;;;;34.80;15.98;;;;;;;18.60;100.00;100460.47;1720748;83;21007;-78
2021/07/31 02:05:00;;;;;;;30.65;15.83;;;;;;;18.58;100.00;100462.70;1720849;83;21131;-77
2021/07/31 02:07:26;;;;;;;38.45;16.00;;;;;;;18.57;100.00;100464.41;1720940;83;20895;-77
2021/07/31 02:09:52;;;;;;;27.90;14.63;;;;;;;18.57;100.00;100460.31;1720445;83;21111;-77
2021/07/31 02:12:17;;;;;;;41.28;16.17;;;;;;;18.52;100.00;100463.17;1720749;83;20884;-75
2021/07/31 02:14:43;;;;;;;31.17;15.25;;;;;;;18.51;100.00;100465.10;1726899;82;20908;-78
2021/07/31 02:17:09;;;;;;;29.12;13.80;;;;;;;18.50;100.00;100467.59;1740379;82;20923;-76
2021/07/31 02:19:35;;;;;;;30.23;15.93;;;;;;;18.47;100.00;100465.50;1740775;82;20987;-77
2021/07/31 02:22:01;;;;;;;37.03;16.40;;;;;;;18.46;100.00;100468.53;1740443;82;21534;-76
2021/07/31 02:24:27;;;;;;;33.65;15.93;;;;;;;18.49;100.00;100474.16;1740115;82;21105;-78
2021/07/31 02:26:53;;;;;;;29.63;14.73;;;;;;;18.50;100.00;100474.42;1738911;80;20967;-77
2021/07/31 02:29:19;;;;;;;32.45;15.15;;;;;;;18.54;100.00;100471.86;1736570;82;20952;-78
2021/07/31 02:31:45;;;;;;;30.23;16.10;;;;;;;18.55;100.00;100472.09;1736484;82;20999;-77
2021/07/31 02:34:10;;;;;;;31.68;15.28;;;;;;;18.56;100.00;100471.79;1713774;82;21137;-77
2021/07/31 02:36:36;;;;;;;36.98;15.15;;;;;;;18.59;100.00;100473.09;1736447;82;21625;-81
2021/07/31 02:39:02;;;;;;;37.38;15.40;;;;;;;18.63;100.00;100474.62;1736487;82;20912;-77
2021/07/31 02:41:28;;;;;;;30.45;14.70;;;;;;;18.67;100.00;100476.94;1736630;82;21043;-76
2021/07/31 02:43:54;;;;;;;33.20;15.58;;;;;;;18.68;100.00;100482.10;1736640;82;21672;-76
2021/07/31 02:46:20;;;;;;;29.82;14.78;;;;;;;18.73;100.00;100484.69;1736275;82;21070;-75
2021/07/31 02:48:46;;;;;;;31.48;15.28;;;;;;;18.80;100.00;100486.98;1736544;82;20885;-78
2021/07/31 02:51:14;;;;;;;32.65;16.05;;;;;;;18.87;100.00;100487.87;1736371;82;20944;-82
2021/07/31 02:53:40;;;;;;;31.33;15.03;;;;;;;18.96;100.00;100478.56;1736493;82;21078;-77
2021/07/31 02:56:07;;;;;;;29.05;15.20;;;;;;;19.05;100.00;100486.20;1736555;82;20988;-78
2021/07/31 02:58:33;;;;;;;30.35;15.03;;;;;;;19.12;100.00;100487.12;1736443;82;21493;-77
2021/07/31 03:01:04;;;;;;;31.40;15.53;;;;;;;19.20;100.00;100489.59;1736474;82;20936;-77
2021/07/31 03:03:30;;;;;;;31.82;15.05;;;;;;;19.29;100.00;100493.14;1736533;82;21038;-77
2021/07/31 03:05:58;;;;;;;34.58;15.30;;;;;;;19.41;100.00;100496.06;1736527;82;20861;-83
2021/07/31 03:08:27;;;;;;;26.90;14.65;;;;;;;19.52;100.00;100495.16;1736451;82;21134;-77
2021/07/31 03:10:59;;;;;;;28.17;14.55;;;;;;;19.61;100.00;100497.31;1735978;82;21043;-76
2021/07/31 03:13:25;;;;;;;30.05;15.20;;;;;;;19.70;100.00;100496.77;1676803;84;21028;-77
2021/07/31 03:15:54;;;;;;;28.92;15.00;;;;;;;19.82;100.00;100504.88;1673508;85;21592;-78
2021/07/31 03:18:24;;;;;;;31.65;15.05;;;;;;;19.94;100.00;100500.91;1676859;84;20955;-77
2021/07/31 03:20:53;;;;;;;30.72;14.75;;;;;;;20.07;100.00;100504.61;1677035;85;21078;-78
2021/07/31 03:23:22;;;;;;;29.90;14.73;;;;;;;20.21;100.00;100497.00;1673656;85;21915;-77
2021/07/31 03:25:48;;;;;;;28.73;14.98;;;;;;;20.40;100.00;100502.08;1676567;84;21047;-79
2021/07/31 03:28:14;;;;;;;35.55;15.98;;;;;;;20.68;100.00;100497.54;1723108;81;21548;-83
2021/07/31 03:30:46;;;;;;;27.73;13.90;;;;;;;21.13;100.00;100500.50;1723397;83;21519;-76
2021/07/31 03:33:13;;;;;;;26.20;14.25;;;;;;;21.59;100.00;100502.02;1723399;83;21118;-78
2021/07/31 03:35:41;;;;;;;31.85;13.60;;;;;;;21.94;100.00;100498.36;1723349;83;21145;-76
2021/07/31 03:38:09;;;;;;;26.87;14.03;;;;;;;22.28;100.00;100500.54;1723485;83;21027;-78
2021/07/31 03:40:36;;;;;;;28.23;14.13;;;;;;;22.56;100.00;100499.28;1723408;83;20976;-77
2021/07/31 03:43:02;;;;;;;23.07;13.25;;;;;;;23.00;100.00;100493.47;1699407;83;21016;-76
2021/07/31 03:45:28;;;;;;;24.43;13.00;;;;;;;23.68;100.00;100504.24;1723159;83;21051;-76
2021/07/31 03:47:54;;;;;;;23.42;12.28;;;;;;;24.29;100.00;100500.38;1723376;83;21891;-78
2021/07/31 03:50:20;;;;;;;22.87;12.13;;;;;;;24.84;100.00;100502.15;1723390;83;21015;-77
2021/07/31 03:52:46;;;;;;;22.60;12.60;;;;;;;25.53;100.00;100502.49;1723318;83;20963;-78
2021/07/31 03:55:12;;;;;;;30.70;12.47;;;;;;;26.12;100.00;100505.17;1723314;83;20971;-78
2021/07/31 03:57:38;;;;;;;21.77;11.85;;;;;;;26.83;100.00;100502.83;1723348;83;21573;-76
2021/07/31 04:00:06;;;;;;;23.55;11.95;;;;;;;27.27;100.00;100507.22;1723334;83;21040;-78
2021/07/31 04:02:33;;;;;;;25.12;11.97;;;;;;;27.78;100.00;100501.69;1723158;83;21015;-78
2021/07/31 04:04:59;;;;;;;18.20;11.08;;;;;;;28.30;100.00;100501.23;1723902;83;21070;-75
2021/07/31 04:07:25;;;;;;;21.87;11.28;;;;;;;28.73;100.00;100498.80;1723354;83;21078;-76
2021/07/31 04:09:52;;;;;;;22.15;10.98;;;;;;;29.20;100.00;100497.13;1748236;80;21022;-76
2021/07/31 04:12:18;;;;;;;23.67;10.95;;;;;;;29.51;100.00;100503.22;1792611;80;20994;-76
2021/07/31 04:14:44;;;;;;;21.87;11.97;;;;;;;29.88;100.00;100503.75;1792448;80;21011;-77
2021/07/31 04:17:11;;;;;;;24.50;12.45;;;;;;;30.37;100.00;100500.64;1792596;80;21050;-77
2021/07/31 04:19:38;;;;;;;23.20;12.43;;;;;;;31.13;100.00;100494.57;1792302;80;21002;-82
2021/07/31 04:22:06;;;;;;;19.07;12.18;;;;;;;31.87;100.00;100491.23;1792540;80;21066;-77
2021/07/31 04:24:32;;;;;;;20.40;11.08;;;;;;;32.58;100.00;100492.72;1696291;84;21093;-77
2021/07/31 04:26:58;;;;;;;18.67;12.00;;;;;;;32.96;100.00;100499.70;1691260;84;20960;-77
2021/07/31 04:29:24;;;;;;;17.60;11.38;;;;;;;33.16;100.00;100497.73;1668901;86;20976;-78
2021/07/31 04:31:50;;;;;;;18.65;10.95;;;;;;;33.76;100.00;100504.54;1668953;86;21583;-78
2021/07/31 04:34:16;;;;;;;17.77;11.12;;;;;;;34.16;94.80;100506.79;1669114;86;20898;-77
2021/07/31 04:36:42;;;;;;;20.60;11.88;;;;;;;34.49;83.17;100505.02;1668732;86;21201;-78
2021/07/31 04:39:08;;;;;;;19.17;11.73;;;;;;;34.46;81.45;100505.27;1669048;86;20941;-78
2021/07/31 04:41:34;;;;;;;22.17;11.65;;;;;;;34.70;80.94;100506.67;1669127;86;21023;-78
2021/07/31 04:44:00;;;;;;;16.37;11.33;;;;;;;35.04;82.93;100508.66;1668961;86;21493;-77
2021/07/31 04:46:26;;;;;;;16.87;10.60;;;;;;;35.40;76.69;100510.72;1668889;86;21056;-78
2021/07/31 04:48:52;;;;;;;15.85;11.25;;;;;;;35.59;70.79;100520.37;1646427;86;21112;-79
2021/07/31 04:51:18;;;;;;;18.57;11.80;;;;;;;35.98;72.20;100514.47;1668824;86;20977;-78
2021/07/31 04:53:44;;;;;;;17.60;11.05;;;;;;;36.17;65.45;100517.04;1669054;86;21065;-78
2021/07/31 04:56:10;;;;;;;21.45;11.48;;;;;;;36.49;63.33;100514.83;1665931;86;20896;-77
2021/07/31 04:58:35;;;;;;;19.60;10.40;;;;;;;36.72;63.02;100515.88;1669026;86;20976;-79
2021/07/31 05:01:02;;;;;;;18.23;9.75;;;;;;;37.07;59.77;100520.38;1669110;86;21009;-78
2021/07/31 05:03:29;;;;;;;18.52;10.30;;;;;;;37.03;55.31;100514.25;1668933;86;21080;-79
2021/07/31 05:05:56;;;;;;;17.12;9.83;;;;;;;36.92;55.55;100515.75;1668951;86;21004;-79
2021/07/31 05:08:22;;;;;;;17.17;10.18;;;;;;;37.07;55.11;100520.38;1668919;86;21535;-79
2021/07/31 05:10:51;;;;;;;18.80;10.43;;;;;;;37.64;54.81;100525.13;1668939;86;21079;-76
2021/07/31 05:13:18;;;;;;;16.40;10.30;;;;;;;38.09;50.40;100527.56;1668822;86;22327;-79
2021/07/31 05:15:46;;;;;;;16.65;9.85;;;;;;;38.34;50.50;100527.54;1732377;80;21063;-79
2021/07/31 05:18:12;;;;;;;16.12;10.45;;;;;;;38.69;48.89;100534.63;1781684;80;20947;-79
2021/07/31 05:20:46;;;;;;;12.18;9.28;;;;;;;38.82;47.25;100534.58;1781627;80;21042;-76
2021/07/31 05:23:14;;;;;;;19.00;11.08;;;;;;;38.93;46.97;100540.65;1781420;80;20936;-80
2021/07/31 05:25:45;;;;;;;15.55;9.73;;;;;;;39.21;46.24;100537.42;1781353;80;21086;-78
2021/07/31 05:28:14;;;;;;;18.30;10.25;;;;;;;39.50;45.40;100539.17;1713678;82;21011;-78
2021/07/31 05:30:42;;;;;;;15.60;10.30;;;;;;;39.71;43.52;100536.14;1715101;82;21058;-80
2021/07/31 05:33:08;;;;;;;16.52;10.82;;;;;;;40.03;44.24;100541.94;1715100;82;21012;-78
2021/07/31 05:35:34;;;;;;;15.83;10.53;;;;;;;40.38;42.04;100543.94;1714739;82;21062;-79
2021/07/31 05:38:03;;;;;;;15.15;10.55;;;;;;;40.71;41.83;100541.99;1714582;82;21164;-79
2021/07/31 05:40:29;;;;;;;16.30;11.65;;;;;;;40.90;42.15;100545.59;1714776;83;21015;-79
2021/07/31 05:42:55;;;;;;;15.80;10.38;;;;;;;41.19;40.22;100547.17;1714633;83;21531;-78
2021/07/31 05:45:21;;;;;;;15.83;10.58;;;;;;;41.46;39.56;100549.15;1690689;83;21076;-80
2021/07/31 05:47:47;;;;;;;14.13;10.13;;;;;;;41.42;39.00;100539.42;1714906;82;21103;-84
2021/07/31 05:50:13;;;;;;;15.08;10.93;;;;;;;41.78;39.67;100542.63;1714825;82;21825;-79
2021/07/31 05:52:39;;;;;;;16.10;10.15;;;;;;;42.09;37.79;100548.77;1714611;82;21043;-79
2021/07/31 05:55:07;;;;;;;20.27;10.48;;;;;;;42.47;37.58;100552.20;1714897;82;21140;-79
2021/07/31 05:57:34;;;;;;;18.15;10.43;;;;;;;42.85;37.52;100550.04;1714992;82;21046;-79
2021/07/31 06:00:00;;;;;;;14.68;10.30;;;;;;;43.05;35.77;100550.17;1715013;82;21056;-79
2021/07/31 06:02:26;;;;;;;18.00;10.58;;;;;;;42.92;35.24;100545.42;1715140;82;21102;-79
2021/07/31 06:04:53;;;;;;;16.82;11.35;;;;;;;42.90;35.68;100544.34;1714874;82;21640;-79
2021/07/31 06:07:19;;;;;;;21.55;11.85;;;;;;;43.02;35.05;100548.95;1714756;83;21075;-79
2021/07/31 06:09:50;;;;;;;16.37;10.68;;;;;;;43.29;34.47;100547.27;1715006;82;21066;-79
2021/07/31 06:12:15;;;;;;;20.32;10.28;;;;;;;43.32;34.64;100546.94;1714461;82;20995;-83
2021/07/31 06:14:41;;;;;;;14.98;10.50;;;;;;;43.76;33.01;100554.02;1714959;82;21037;-79
2021/07/31 06:17:07;;;;;;;13.43;10.63;;;;;;;44.25;33.19;100551.66;1714832;83;20979;-80
2021/07/31 06:19:34;;;;;;;15.85;10.90;;;;;;;44.68;31.04;100543.42;1714968;82;21015;-76
2021/07/31 06:22:02;;;;;;;17.27;10.58;;;;;;;44.44;31.23;100544.43;1714943;82;21050;-80
2021/07/31 06:24:29;;;;;;;19.67;11.00;;;;;;;44.93;31.93;100547.62;1734110;80;21404;-79
2021/07/31 06:26:56;;;;;;;15.72;10.95;;;;;;;45.44;30.25;100546.69;1784325;80;21068;-79
2021/07/31 06:29:22;;;;;;;15.45;10.90;;;;;;;45.87;30.56;100542.52;1773317;80;21084;-79
2021/07/31 06:31:49;;;;;;;17.37;11.08;;;;;;;46.29;29.49;100540.98;1773497;81;20924;-80
2021/07/31 06:34:15;;;;;;;15.05;10.95;;;;;;;45.75;29.11;100542.44;1772993;81;21119;-83
2021/07/31 06:36:42;;;;;;;14.55;10.68;;;;;;;45.28;28.57;100542.42;1773450;80;21015;-77
2021/07/31 06:39:10;;;;;;;14.63;10.55;;;;;;;45.35;30.22;100546.23;1773210;81;21165;-77
2021/07/31 06:41:36;;;;;;;13.45;10.25;;;;;;;45.75;30.51;100538.16;1773329;81;21048;-77
2021/07/31 06:44:03;;;;;;;14.98;11.15;;;;;;;46.10;28.51;100542.81;1749651;81;20939;-77
2021/07/31 06:46:29;;;;;;;11.75;10.45;;;;;;;46.40;28.34;100531.83;1773329;81;20995;-77
2021/07/31 06:48:57;;;;;;;13.85;11.10;;;;;;;46.51;27.91;100535.38;1773051;81;20993;-77
2021/07/31 06:51:24;;;;;;;15.83;11.33;;;;;;;46.26;27.35;100528.50;1773357;81;21174;-77
2021/07/31 06:53:51;;;;;;;12.68;9.63;;;;;;;46.27;26.93;100527.23;1773398;81;20976;-77
2021/07/31 06:56:18;;;;;;;11.20;8.95;;;;;;;46.60;27.93;100532.95;1773405;80;20945;-77
2021/07/31 06:58:44;;;;;;;16.77;10.40;;;;;;;46.87;26.81;100540.05;1773588;81;21011;-77
2021/07/31 07:01:15;;;;;;;13.22;10.53;;;;;;;47.00;27.25;100540.31;1773468;81;21032;-77
2021/07/31 07:03:43;;;;;;;12.63;11.33;;;;;;;46.97;26.17;100541.34;1773508;81;21971;-77
2021/07/31 07:06:10;;;;;;;12.65;9.83;;;;;;;47.05;26.77;100537.38;1772924;81;20984;-77
2021/07/31 07:08:36;;;;;;;13.35;10.43;;;;;;;47.36;26.40;100539.19;1773399;80;20940;-78
2021/07/31 07:11:04;;;;;;;14.80;9.80;;;;;;;47.80;25.75;100539.08;1773343;81;21013;-76
2021/07/31 07:13:31;;;;;;;10.55;9.45;;;;;;;47.63;24.84;100545.47;1773448;81;20972;-77
2021/07/31 07:15:57;;;;;;;11.53;9.50;;;;;;;47.25;25.92;100536.36;1772993;81;21175;-84
2021/07/31 07:18:23;;;;;;;11.38;10.18;;;;;;;47.23;24.72;100539.72;1773307;81;20963;-77
2021/07/31 07:20:49;;;;;;;10.78;9.00;;;;;;;46.85;24.45;100544.83;1773458;80;20943;-77
2021/07/31 07:23:16;;;;;;;9.15;8.23;;;;;;;47.03;25.63;100540.73;1775260;80;21534;-77
2021/07/31 07:25:43;;;;;;;15.35;9.03;;;;;;;47.44;24.49;100540.92;1773434;80;21482;-78
2021/07/31 07:28:10;;;;;;;11.22;8.88;;;;;;;47.83;24.42;100540.11;1773295;81;21393;-77
2021/07/31 07:30:36;;;;;;;10.25;7.87;;;;;;;48.15;24.39;100538.48;1702381;84;21437;-77
2021/07/31 07:33:03;;;;;;;10.53;9.48;;;;;;;47.95;23.40;100536.73;1706396;84;20929;-77
2021/07/31 07:35:30;;;;;;;11.33;9.28;;;;;;;47.68;23.40;100538.28;1706324;84;21013;-78
2021/07/31 07:37:57;;;;;;;14.33;9.33;;;;;;;47.95;23.93;100543.88;1706419;84;21106;-77
2021/07/31 07:40:23;;;;;;;12.00;8.70;;;;;;;48.41;23.29;100547.36;1706545;84;21797;-77
2021/07/31 07:42:50;;;;;;;12.45;9.00;;;;;;;48.58;22.58;100542.37;1706422;84;20990;-78
2021/07/31 07:45:16;;;;;;;12.05;9.23;;;;;;;48.41;23.65;100545.28;1706352;84;21004;-76
2021/07/31 07:47:42;;;;;;;12.03;10.03;;;;;;;48.63;23.19;100540.80;1706110;84;21013;-78
2021/07/31 07:50:09;;;;;;;17.85;10.25;;;;;;;48.62;22.79;100544.28;1706761;84;21001;-77
2021/07/31 07:52:35;;;;;;;12.10;9.03;;;;;;;48.93;22.38;100547.28;1706488;84;21250;-77
2021/07/31 07:55:01;;;;;;;12.28;10.10;;;;;;;49.17;23.03;100539.42;1733701;81;21360;-77
2021/07/31 07:57:29;;;;;;;12.73;9.45;;;;;;;49.50;22.45;100544.10;1773499;80;20967;-82
2021/07/31 07:59:55;;;;;;;11.35;9.98;;;;;;;49.46;22.42;100548.70;1773078;81;21062;-78
2021/07/31 08:02:21;;;;;;;14.50;9.93;;;;;;;49.35;22.44;100544.50;1773813;81;21475;-77
2021/07/31 08:04:47;;;;;;;11.12;9.80;;;;;;;49.31;22.56;100547.66;1773261;80;21396;-81
2021/07/31 08:07:13;;;;;;;10.60;9.05;;;;;;;49.06;20.82;100551.06;1773798;81;20881;-77
2021/07/31 08:09:40;;;;;;;10.63;8.15;;;;;;;47.49;21.09;100554.42;1773449;80;21413;-77
2021/07/31 08:12:08;;;;;;;9.50;7.83;;;;;;;45.40;22.30;100556.89;1773085;81;21007;-77
2021/07/31 08:14:35;;;;;;;8.53;7.12;;;;;;;44.41;22.91;100556.02;1773531;80;20992;-77
2021/07/31 08:17:01;;;;;;;9.20;7.08;;;;;;;43.35;24.78;100559.37;1772984;80;21070;-76
2021/07/31 08:19:27;;;;;;;11.12;6.87;;;;;;;43.86;24.73;100553.89;1765867;80;21095;-81
2021/07/31 08:21:54;;;;;;;8.33;6.65;;;;;;;43.47;24.20;100554.80;1774255;80;20983;-76
2021/07/31 08:24:21;;;;;;;10.25;6.35;;;;;;;43.78;24.64;100555.59;1767577;80;21047;-78
2021/07/31 08:26:48;;;;;;;9.18;6.62;;;;;;;44.37;23.44;100546.94;1753082;80;21015;-81
2021/07/31 08:29:14;;;;;;;8.53;6.90;;;;;;;44.62;23.04;100556.16;1739045;81;21130;-76
2021/07/31 08:31:42;;;;;;;10.15;6.17;;;;;;;43.92;23.77;100558.41;1728261;81;21056;-77
2021/07/31 08:36:40;;;;;;;8.95;6.37;;;;;;;42.80;26.28;100562.05;1658681;85;21562;-79
2021/07/31 08:39:06;;;;;;;9.88;6.22;;;;;;;41.89;26.13;100559.92;1680973;83;21083;-79
2021/07/31 08:41:35;;;;;;;7.80;5.65;;;;;;;41.04;26.61;100559.13;1679714;83;22429;-79
2021/07/31 08:44:03;;;;;;;9.70;5.67;;;;;;;40.42;27.55;100556.53;1663061;85;21102;-78
2021/07/31 08:46:29;;;;;;;9.68;5.83;;;;;;;39.64;28.99;100554.77;1683323;83;21000;-78
2021/07/31 08:48:59;;;;;;;8.00;5.75;;;;;;;39.00;30.80;100560.73;1653988;85;21605;-79
2021/07/31 08:51:31;;;;;;;10.05;6.20;;;;;;;40.30;29.15;100526.34;1663242;85;21649;-79
2021/07/31 08:54:02;;;;;;;10.08;6.10;;;;;;;40.30;29.15;100526.34;1655253;85;21298;-78
2021/07/31 08:56:31;;;;;;;8.78;6.40;;;;;;;41.74;28.71;100537.11;1648785;85;20955;-79
2021/07/31 08:58:59;;;;;;;8.70;6.75;;;;;;;43.11;27.52;100543.19;1653296;85;21093;-77
2021/07/31 09:01:27;;;;;;;9.55;7.00;;;;;;;44.19;26.16;100540.86;1654413;85;21610;-80
2021/07/31 09:03:54;;;;;;;11.18;6.80;;;;;;;45.16;25.04;100542.97;1656504;85;21105;-80
2021/07/31 09:06:29;;;;;;;8.98;5.87;;;;;;;45.85;24.50;100541.59;1650274;83;21119;-80
2021/07/31 09:08:56;;;;;;;8.38;6.50;;;;;;;46.25;22.64;100539.00;1659952;84;21673;-81
2021/07/31 09:11:24;;;;;;;8.33;6.42;;;;;;;45.13;23.59;100543.20;1677444;83;21117;-81
2021/07/31 09:14:13;;;;;;;7.92;6.42;;;;;;;44.68;24.15;100536.95;1682158;83;21454;-81
2021/07/31 09:16:41;;;;;;;8.45;6.58;;;;;;;44.97;23.28;100533.94;1585759;87;21653;-80
2021/07/31 09:19:09;;;;;;;7.97;6.30;;;;;;;45.21;22.31;100532.91;1616874;86;21653;-81
2021/07/31 09:21:37;;;;;;;9.15;6.42;;;;;;;45.48;21.74;100526.69;1616237;86;21079;-82
2021/07/31 09:24:15;;;;;;;7.53;6.70;;;;;;;46.07;22.47;100534.52;1534678;91;21100;-80
2021/07/31 09:26:50;;;;;;;8.65;6.53;;;;;;;46.14;21.70;100528.31;1529251;91;21093;-81
2021/07/31 09:29:37;;;;;;;8.05;6.97;;;;;;;46.01;22.34;100528.78;1529362;91;21616;-82
2021/07/31 09:32:06;;;;;;;9.33;6.62;;;;;;;46.35;22.42;100528.95;1529645;91;21239;-81
2021/07/31 09:34:46;;;;;;;10.95;6.97;;;;;;;46.20;21.70;100528.47;1579345;90;21094;-82
2021/07/31 09:37:25;;;;;;;8.10;6.45;;;;;;;45.57;21.61;100533.48;1602016;89;21049;-83
2021/07/31 09:40:04;;;;;;;10.08;6.72;;;;;;;45.42;22.41;100526.48;1612066;88;21094;-78
2021/07/31 09:42:37;;;;;;;8.40;6.75;;;;;;;45.03;22.64;100532.58;1620553;88;21152;-80
2021/07/31 09:45:13;;;;;;;7.78;6.42;;;;;;;44.09;23.31;100530.25;1577130;91;21118;-80
2021/07/31 09:48:00;;;;;;;11.60;6.42;;;;;;;43.99;22.54;100528.83;1576759;91;21052;-80
2021/07/31 09:50:48;;;;;;;7.37;5.80;;;;;;;42.98;24.80;100529.30;1578575;89;21657;-80
2021/07/31 09:53:25;;;;;;;8.78;6.10;;;;;;;43.24;24.72;100525.89;1567025;90;21207;-80
2021/07/31 09:55:58;;;;;;;6.58;5.65;;;;;;;43.43;24.64;100526.48;1563135;90;21550;-81
2021/07/31 09:58:27;;;;;;;7.50;6.00;;;;;;;43.56;24.33;100522.72;1554535;90;21087;-81
2021/07/31 10:00:54;;;;;;;6.65;5.70;;;;;;;43.72;24.10;100523.63;1564508;90;21106;-80
2021/07/31 10:03:21;;;;;;;7.22;5.33;;;;;;;43.80;23.75;100526.05;1560701;89;21082;-80
2021/07/31 10:05:48;;;;;;;9.48;5.58;;;;;;;43.63;24.19;100520.91;1590000;89;21092;-80
2021/07/31 10:08:14;;;;;;;7.40;6.00;;;;;;;43.73;22.87;100517.31;1586282;89;21132;-77
2021/07/31 10:10:41;;;;;;;7.33;5.75;;;;;;;43.25;23.16;100525.42;1574350;89;21006;-77
2021/07/31 10:13:07;;;;;;;6.83;5.70;;;;;;;43.27;24.36;100521.47;1570403;91;21050;-80
2021/07/31 10:15:33;;;;;;;10.88;6.28;;;;;;;43.35;23.59;100513.96;1584545;89;21147;-78
2021/07/31 10:18:10;;;;;;;10.68;5.87;;;;;;;43.44;23.53;100513.85;1572120;89;21102;-81
2021/07/31 10:20:36;;;;;;;9.58;5.58;;;;;;;43.35;24.35;100513.32;1556804;91;21010;-80
2021/07/31 10:23:02;;;;;;;12.23;5.42;;;;;;;43.20;23.37;100494.89;1549869;91;20979;-84
2021/07/31 10:25:28;;;;;;;7.62;5.35;;;;;;;42.56;24.69;100525.20;1559033;91;21087;-80
2021/07/31 10:28:00;;;;;;;10.23;5.47;;;;;;;41.58;25.24;100519.11;1565315;91;21155;-79
2021/07/31 10:30:38;;;;;;;7.35;5.20;;;;;;;40.62;25.72;100522.17;1597400;87;21042;-79
2021/07/31 10:33:04;;;;;;;12.50;5.47;;;;;;;39.81;27.18;100518.67;1626604;88;21627;-79
2021/07/31 10:35:37;;;;;;;6.50;4.87;;;;;;;39.10;27.41;100517.29;1623176;88;21189;-80
2021/07/31 10:38:10;;;;;;;7.95;5.53;;;;;;;38.59;28.48;100516.06;1604933;88;21024;-78
2021/07/31 10:40:43;;;;;;;7.70;5.10;;;;;;;38.21;29.51;100514.72;1602247;89;21394;-78
2021/07/31 10:43:13;;;;;;;9.00;5.20;;;;;;;38.29;29.42;100515.44;1681115;85;21039;-78
2021/07/31 10:45:40;;;;;;;7.62;5.60;;;;;;;38.62;28.67;100501.87;1689662;83;21511;-80
2021/07/31 10:48:27;;;;;;;8.55;5.15;;;;;;;38.98;28.33;100494.97;1689418;83;21091;-78
2021/07/31 10:50:54;;;;;;;8.88;5.10;;;;;;;39.61;28.14;100490.80;1639669;82;21042;-80
2021/07/31 10:53:21;;;;;;;9.60;5.33;;;;;;;40.08;25.86;100494.75;1712238;82;21086;-79
2021/07/31 10:55:56;;;;;;;11.73;6.15;;;;;;;40.26;26.22;100499.67;1710907;82;21079;-80
2021/07/31 10:58:21;;;;;;;10.00;5.47;;;;;;;39.88;28.37;100490.14;1674752;85;21015;-80
2021/07/31 11:00:53;;;;;;;12.93;5.75;;;;;;;39.84;27.93;100491.70;1701641;83;21119;-78
2021/07/31 11:03:25;;;;;;;12.33;6.12;;;;;;;39.88;27.07;100491.55;1640954;86;21086;-77
2021/07/31 11:06:06;;;;;;;9.20;5.40;;;;;;;39.50;27.81;100493.41;1624958;87;21078;-78
2021/07/31 11:08:52;;;;;;;10.72;5.95;;;;;;;38.29;28.36;100495.72;1627750;87;21500;-79
2021/07/31 11:11:25;;;;;;;10.48;6.08;;;;;;;37.29;29.58;100488.37;1629086;88;21027;-77
2021/07/31 11:13:54;;;;;;;8.50;5.92;;;;;;;36.77;30.69;100487.23;1629781;88;21220;-78